Time;durP1;ratioP1;P1;durP2;ratioP2;P2;SDS_P1;SDS_P2;PMS_P1;PMS_P2;Temp;Humidity;BMP_temperature;BMP_pressure;BME280_temperature;BME280_humidity;BME280_pressure;Samples;Min_cycle;Max_cycle;Signal;HPM_P1;HPM_P2
2022/03/07 00:00:28;;;;;;;0.40;0.30;;;;;;;1.75;74.20;102080.75;5056176;28;21035;-79
2022/03/07 00:02:55;;;;;;;0.40;0.30;;;;;;;1.72;74.26;102078.47;5056510;28;20470;-79
2022/03/07 00:05:21;;;;;;;0.40;0.30;;;;;;;1.73;76.04;102078.28;5056072;28;20928;-79
2022/03/07 00:07:48;;;;;;;0.40;0.30;;;;;;;1.89;75.86;102081.56;5056775;28;20449;-79
2022/03/07 00:10:14;;;;;;;0.70;0.70;;;;;;;2.01;75.44;102077.25;5056182;28;20521;-79
2022/03/07 00:12:41;;;;;;;0.40;0.30;;;;;;;2.08;75.49;102080.75;5056025;28;20466;-79
2022/03/07 00:15:08;;;;;;;0.40;0.30;;;;;;;1.97;74.60;102078.69;5057533;28;20445;-78
2022/03/07 00:17:36;;;;;;;0.40;0.30;;;;;;;1.86;75.33;102082.81;5057517;28;20439;-79
2022/03/07 00:20:05;;;;;;;0.40;0.30;;;;;;;1.69;75.71;102084.25;5061034;28;20489;-78
2022/03/07 00:22:31;;;;;;;0.40;0.30;;;;;;;1.74;76.03;102079.94;5059885;28;20454;-78
2022/03/07 00:24:58;;;;;;;0.40;0.30;;;;;;;1.72;76.26;102083.81;5055443;28;20447;-79
2022/03/07 00:27:24;;;;;;;0.40;0.30;;;;;;;1.72;76.73;102076.63;5055577;28;20446;-79
2022/03/07 00:29:51;;;;;;;0.40;0.30;;;;;;;1.75;76.69;102076.22;5055093;28;20426;-79
2022/03/07 00:32:17;;;;;;;0.40;0.30;;;;;;;1.77;76.04;102074.19;5055317;28;20474;-78
2022/03/07 00:34:45;;;;;;;0.70;0.70;;;;;;;1.67;76.29;102068.41;5054979;28;20422;-78
2022/03/07 00:37:12;;;;;;;0.40;0.30;;;;;;;1.74;75.91;102077.25;5055623;28;20464;-79
2022/03/07 00:39:38;;;;;;;0.40;0.30;;;;;;;1.70;76.04;102073.34;5054949;28;20485;-78
2022/03/07 00:42:05;;;;;;;0.40;0.30;;;;;;;1.67;76.28;102072.94;5055160;28;20824;-78
2022/03/07 00:44:31;;;;;;;0.40;0.30;;;;;;;1.67;75.41;102080.94;5055067;28;20796;-78
2022/03/07 00:46:58;;;;;;;0.40;0.30;;;;;;;1.55;76.00;102078.06;5055305;28;20450;-79
2022/03/07 00:49:24;;;;;;;0.40;0.30;;;;;;;1.39;77.56;102086.47;5054959;28;20446;-79
2022/03/07 00:51:52;;;;;;;0.40;0.30;;;;;;;1.42;77.48;102084.22;5055003;28;20458;-79
2022/03/07 00:54:19;;;;;;;0.40;0.30;;;;;;;1.40;77.77;102083.59;5054562;28;20446;-78
2022/03/07 00:56:45;;;;;;;0.40;0.30;;;;;;;1.35;77.92;102079.88;5054545;28;20820;-78
2022/03/07 00:59:11;;;;;;;0.40;0.30;;;;;;;1.32;78.80;102080.28;5054689;28;20492;-78
2022/03/07 01:01:38;;;;;;;0.40;0.30;;;;;;;1.30;78.77;102074.34;5054212;28;20458;-78
2022/03/07 01:04:05;;;;;;;0.40;0.30;;;;;;;1.27;79.13;102081.72;5054057;28;20449;-78
2022/03/07 01:06:31;;;;;;;0.40;0.30;;;;;;;1.15;79.34;102078.00;5054269;28;20808;-78
2022/03/07 01:08:59;;;;;;;3.43;3.23;;;;;;;1.12;79.68;102086.41;5053251;28;20446;-78
2022/03/07 01:11:26;;;;;;;0.40;0.30;;;;;;;0.99;80.77;102081.84;5053683;28;20791;-77
2022/03/07 01:13:52;;;;;;;3.43;3.23;;;;;;;0.94;81.17;102086.16;5054066;28;20447;-78
2022/03/07 01:16:19;;;;;;;0.40;0.30;;;;;;;0.99;80.51;102078.34;5053740;28;20442;-78
2022/03/07 01:18:45;;;;;;;0.40;0.30;;;;;;;1.07;80.44;102072.03;5053491;28;20779;-78
2022/03/07 01:21:13;;;;;;;0.40;0.30;;;;;;;0.91;80.54;102073.19;5054364;28;20465;-78
2022/03/07 01:23:39;;;;;;;1.63;1.53;;;;;;;0.69;80.96;102075.97;5054453;28;20466;-78
2022/03/07 01:26:07;;;;;;;0.40;0.30;;;;;;;0.82;80.05;102071.72;5054806;28;20449;-78
2022/03/07 01:28:34;;;;;;;0.40;0.30;;;;;;;0.58;80.70;102070.41;5054424;28;20458;-78
2022/03/07 01:31:00;;;;;;;0.40;0.30;;;;;;;0.66;80.69;102070.22;5054633;28;20454;-78
2022/03/07 01:33:27;;;;;;;0.40;0.30;;;;;;;0.56;80.42;102067.09;5054074;28;20489;-78
2022/03/07 01:35:53;;;;;;;0.40;0.30;;;;;;;0.50;80.72;102069.53;5054534;28;20461;-78
2022/03/07 01:38:20;;;;;;;0.40;0.30;;;;;;;0.41;81.69;102067.25;5054490;28;20437;-78
2022/03/07 01:40:46;;;;;;;0.40;0.30;;;;;;;0.27;82.37;102070.81;5054357;28;20485;-78
2022/03/07 01:43:14;;;;;;;0.40;0.30;;;;;;;0.27;82.58;102076.16;5054489;28;20479;-78
2022/03/07 01:45:42;;;;;;;0.40;0.30;;;;;;;0.45;81.58;102068.50;5054473;28;20457;-78
2022/03/07 01:48:08;;;;;;;0.40;0.30;;;;;;;0.48;81.00;102068.91;5054420;28;20852;-78
2022/03/07 01:50:35;;;;;;;0.40;0.30;;;;;;;0.39;81.45;102063.94;5054146;28;20441;-78
2022/03/07 01:53:02;;;;;;;0.40;0.30;;;;;;;0.46;81.29;102064.81;5053939;28;20493;-78
2022/03/07 01:55:29;;;;;;;0.40;0.30;;;;;;;0.57;80.66;102058.91;5054210;28;20473;-78
2022/03/07 01:57:56;;;;;;;0.40;0.30;;;;;;;0.49;80.85;102061.75;5054428;28;20446;-78
2022/03/07 02:00:26;;;;;;;0.40;0.30;;;;;;;0.52;81.06;102064.00;5053965;28;20521;-78
2022/03/07 02:02:53;;;;;;;0.40;0.30;;;;;;;0.57;80.83;102060.75;5054206;28;20457;-78
2022/03/07 02:05:20;;;;;;;0.40;0.30;;;;;;;0.60;81.05;102055.84;5034068;28;20435;-78
2022/03/07 02:07:46;;;;;;;0.40;0.30;;;;;;;0.68;80.77;102058.34;5034007;28;20435;-79
2022/03/07 02:10:13;;;;;;;0.40;0.30;;;;;;;0.67;80.34;102058.56;5033861;28;20963;-78
2022/03/07 02:12:40;;;;;;;0.40;0.30;;;;;;;0.71;80.73;102051.81;5034222;28;20463;-78
2022/03/07 02:15:08;;;;;;;0.40;0.30;;;;;;;0.71;80.51;102049.94;5033596;28;20936;-78
2022/03/07 02:17:36;;;;;;;0.40;0.30;;;;;;;0.73;80.20;102044.41;5033877;28;20505;-78
2022/03/07 02:20:04;;;;;;;0.40;0.30;;;;;;;0.68;80.80;102046.84;5034405;28;20491;-79
2022/03/07 02:22:32;;;;;;;0.43;0.43;;;;;;;0.81;80.98;102046.09;5037767;28;20485;-78
2022/03/07 02:24:59;;;;;;;0.40;0.30;;;;;;;0.91;80.72;102051.84;5037453;28;20455;-79
2022/03/07 02:27:25;;;;;;;0.40;0.30;;;;;;;0.93;80.81;102047.13;5037196;28;20430;-79
2022/03/07 02:29:52;;;;;;;0.40;0.30;;;;;;;0.94;80.10;102056.81;5037325;28;20443;-78
2022/03/07 02:32:20;;;;;;;0.40;0.30;;;;;;;0.84;79.05;102045.66;5036698;28;21018;-79
2022/03/07 02:34:47;;;;;;;0.40;0.30;;;;;;;0.78;79.19;102046.47;5036903;28;21032;-79
2022/03/07 02:37:13;;;;;;;0.40;0.30;;;;;;;0.78;79.11;102046.47;5038470;28;20445;-79
2022/03/07 02:39:41;;;;;;;0.40;0.30;;;;;;;0.80;79.20;102039.94;5038367;28;20483;-79
2022/03/07 02:42:08;;;;;;;0.40;0.30;;;;;;;0.80;79.77;102039.09;5038142;28;20463;-79
2022/03/07 02:44:35;;;;;;;0.40;0.30;;;;;;;0.66;79.15;102038.22;5038471;28;20446;-79
2022/03/07 02:47:01;;;;;;;0.40;0.30;;;;;;;0.55;79.20;102036.97;5038401;28;20447;-79
2022/03/07 02:49:28;;;;;;;0.40;0.30;;;;;;;0.45;79.92;102036.50;5038560;28;20453;-79
2022/03/07 02:51:54;;;;;;;0.40;0.30;;;;;;;0.47;80.15;102037.13;5038246;28;20475;-79
2022/03/07 02:54:21;;;;;;;0.40;0.30;;;;;;;0.38;80.95;102039.13;5038148;28;20866;-79
2022/03/07 02:56:49;;;;;;;0.40;0.30;;;;;;;0.36;80.87;102032.38;5038189;28;20450;-79
2022/03/07 02:59:16;;;;;;;0.40;0.30;;;;;;;0.14;81.68;102035.09;5038265;28;20463;-79
2022/03/07 03:01:44;;;;;;;0.40;0.30;;;;;;;0.11;81.89;102035.50;5038193;28;20498;-79
2022/03/07 03:04:11;;;;;;;0.40;0.30;;;;;;;0.15;81.94;102036.75;5048614;28;20458;-79
2022/03/07 03:06:37;;;;;;;0.40;0.30;;;;;;;0.16;81.96;102038.38;5057880;28;20442;-79
2022/03/07 03:09:04;;;;;;;0.40;0.30;;;;;;;0.25;81.69;102031.88;5057566;28;20446;-79
2022/03/07 03:11:32;;;;;;;0.40;0.30;;;;;;;0.35;81.49;102033.38;5057539;28;20959;-79
2022/03/07 03:13:59;;;;;;;0.40;0.30;;;;;;;0.38;81.53;102020.47;5057401;28;20442;-79
2022/03/07 03:16:26;;;;;;;0.40;0.30;;;;;;;0.34;82.64;102023.72;5057631;28;20454;-79
2022/03/07 03:18:53;;;;;;;0.40;0.30;;;;;;;0.27;83.13;102018.38;5057075;28;20975;-79
2022/03/07 03:21:20;;;;;;;0.40;0.30;;;;;;;0.27;83.08;102021.03;5057612;28;20482;-79
2022/03/07 03:23:47;;;;;;;0.40;0.30;;;;;;;0.24;83.21;102014.25;5057597;28;20447;-78
2022/03/07 03:26:14;;;;;;;0.40;0.30;;;;;;;0.34;83.17;102013.06;5057040;28;20438;-77
2022/03/07 03:28:40;;;;;;;0.40;0.30;;;;;;;0.36;83.11;102016.38;5056472;28;20439;-78
2022/03/07 03:31:11;;;;;;;0.40;0.30;;;;;;;0.32;83.21;102015.13;5056675;28;20526;-77
2022/03/07 03:33:37;;;;;;;0.40;0.30;;;;;;;0.28;83.27;102025.34;5056319;28;20528;-78
2022/03/07 03:36:05;;;;;;;0.40;0.30;;;;;;;0.18;83.44;102015.06;5057320;28;20443;-79
2022/03/07 03:38:31;;;;;;;0.40;0.30;;;;;;;0.03;83.78;102027.66;5057266;28;20447;-78
2022/03/07 03:40:58;;;;;;;0.40;0.30;;;;;;;0.01;83.04;102026.22;5057173;28;20493;-78
2022/03/07 03:43:24;;;;;;;0.40;0.30;;;;;;;-0.08;83.76;102025.53;5056794;28;20462;-78
2022/03/07 03:45:51;;;;;;;0.40;0.30;;;;;;;-0.13;83.60;102026.13;5057461;28;20446;-79
2022/03/07 03:48:18;;;;;;;0.40;0.30;;;;;;;-0.05;82.92;102025.13;5056879;28;20944;-78
2022/03/07 03:50:45;;;;;;;0.40;0.30;;;;;;;0.07;82.85;102018.25;5056910;28;20955;-78
2022/03/07 03:53:11;;;;;;;0.40;0.30;;;;;;;0.13;82.66;102016.63;5057651;28;20485;-78
2022/03/07 03:55:38;;;;;;;0.40;0.30;;;;;;;0.01;82.72;102020.88;5057453;28;20454;-79
2022/03/07 03:58:04;;;;;;;0.40;0.30;;;;;;;-0.05;82.65;102017.97;5057209;28;20457;-78
2022/03/07 04:00:31;;;;;;;0.40;0.30;;;;;;;-0.03;82.75;102012.47;5056710;28;21015;-78
2022/03/07 04:02:57;;;;;;;0.40;0.30;;;;;;;0.03;83.07;102010.84;5057289;28;20472;-79
2022/03/07 04:05:25;;;;;;;0.40;0.30;;;;;;;0.02;83.07;102015.34;5057365;28;20426;-78
2022/03/07 04:07:52;;;;;;;0.40;0.30;;;;;;;-0.06;82.83;102018.16;5057500;28;20442;-79
2022/03/07 04:10:18;;;;;;;0.40;0.30;;;;;;;-0.05;82.14;102019.81;5056961;28;20809;-79
2022/03/07 04:12:45;;;;;;;0.40;0.30;;;;;;;-0.18;83.31;102025.03;5058134;28;20462;-78
2022/03/07 04:15:12;;;;;;;0.40;0.30;;;;;;;-0.18;83.78;102019.72;5056527;28;20445;-78
2022/03/07 04:17:39;;;;;;;0.40;0.30;;;;;;;-0.32;84.70;102024.13;5056843;28;20950;-79
2022/03/07 04:20:07;;;;;;;0.40;0.30;;;;;;;-0.23;84.96;102025.63;5058277;28;20482;-80
2022/03/07 04:22:36;;;;;;;0.40;0.30;;;;;;;-0.24;85.09;102039.13;5057640;28;20458;-79
2022/03/07 04:25:03;;;;;;;0.40;0.30;;;;;;;-0.13;84.96;102033.31;5057521;28;20533;-79
2022/03/07 04:27:30;;;;;;;0.40;0.30;;;;;;;-0.23;85.33;102038.13;5058341;28;20822;-79
2022/03/07 04:29:57;;;;;;;0.50;0.50;;;;;;;-0.17;85.38;102038.19;5058432;28;20446;-80
2022/03/07 04:32:24;;;;;;;0.40;0.30;;;;;;;-0.08;84.52;102041.53;5057731;28;20466;-79
2022/03/07 04:34:51;;;;;;;0.40;0.30;;;;;;;-0.01;84.43;102029.06;5058087;28;20462;-80
2022/03/07 04:37:17;;;;;;;0.40;0.30;;;;;;;0.18;84.89;102032.88;5057744;28;20809;-80
2022/03/07 04:39:45;;;;;;;0.40;0.30;;;;;;;0.25;84.64;102042.53;5058629;28;20453;-78
2022/03/07 04:42:12;;;;;;;0.40;0.30;;;;;;;0.17;83.92;102034.69;5058225;28;20481;-79
2022/03/07 04:44:38;;;;;;;21.43;8.97;;;;;;;0.16;83.69;102043.72;5058131;28;20450;-80
2022/03/07 04:47:05;;;;;;;0.40;0.30;;;;;;;0.10;84.31;102039.19;5058451;28;20450;-80
2022/03/07 04:49:32;;;;;;;0.40;0.30;;;;;;;0.00;84.47;102036.06;5064007;28;20443;-79
2022/03/07 04:51:58;;;;;;;0.40;0.30;;;;;;;0.05;84.00;102038.94;5064352;28;20458;-79
2022/03/07 04:54:24;;;;;;;0.40;0.30;;;;;;;0.22;84.10;102039.44;5055836;28;20449;-79
2022/03/07 04:56:54;;;;;;;0.40;0.30;;;;;;;0.23;83.55;102044.59;5055759;28;20454;-80
2022/03/07 04:59:21;;;;;;;0.77;0.77;;;;;;;0.23;83.15;102046.44;5055527;28;20454;-79
2022/03/07 05:01:47;;;;;;;0.40;0.30;;;;;;;0.23;83.12;102044.59;5054891;28;20501;-79
2022/03/07 05:04:14;;;;;;;0.40;0.30;;;;;;;0.18;83.51;102040.88;5055055;28;20860;-79
2022/03/07 05:06:40;;;;;;;0.40;0.30;;;;;;;0.13;83.80;102046.75;5055488;28;20442;-79
2022/03/07 05:09:07;;;;;;;0.40;0.30;;;;;;;0.22;83.75;102045.63;5055256;28;20630;-79
2022/03/07 05:11:33;;;;;;;0.67;0.67;;;;;;;0.22;83.50;102042.94;5054859;28;20449;-79
2022/03/07 05:14:01;;;;;;;0.40;0.30;;;;;;;0.31;82.89;102043.63;5054153;28;20437;-79
2022/03/07 05:16:27;;;;;;;0.53;0.53;;;;;;;0.26;83.23;102048.69;5056278;28;20450;-78
2022/03/07 05:18:54;;;;;;;13.80;12.70;;;;;;;0.15;83.92;102051.91;5064117;28;20438;-80
2022/03/07 05:21:20;;;;;;;0.40;0.30;;;;;;;0.23;83.57;102052.59;5061124;28;20478;-80
2022/03/07 05:23:47;;;;;;;1.23;1.23;;;;;;;0.22;83.90;102055.41;5056520;28;20493;-79
2022/03/07 05:26:13;;;;;;;0.40;0.40;;;;;;;0.12;83.84;102066.44;5057171;28;20434;-79
2022/03/07 05:28:40;;;;;;;0.40;0.30;;;;;;;0.16;83.93;102057.03;5057209;28;20509;-79
2022/03/07 05:31:09;;;;;;;0.40;0.30;;;;;;;0.15;83.79;102052.72;5057246;28;20952;-79
2022/03/07 05:33:35;;;;;;;0.40;0.30;;;;;;;0.13;83.57;102064.59;5058184;28;20473;-79
2022/03/07 05:36:02;;;;;;;0.40;0.30;;;;;;;0.09;83.25;102058.00;5056673;28;20453;-80
2022/03/07 05:38:28;;;;;;;0.40;0.30;;;;;;;0.06;82.89;102061.06;5056718;28;20439;-79
2022/03/07 05:40:55;;;;;;;0.70;0.70;;;;;;;-0.01;83.31;102058.34;5057049;28;20482;-80
2022/03/07 05:43:21;;;;;;;0.40;0.30;;;;;;;-0.06;83.84;102061.59;5056179;28;20874;-80
2022/03/07 05:45:48;;;;;;;0.40;0.30;;;;;;;-0.08;84.06;102050.34;5057314;28;20459;-79
2022/03/07 05:48:15;;;;;;;0.40;0.30;;;;;;;-0.09;84.01;102061.16;5056581;28;20442;-79
2022/03/07 05:50:42;;;;;;;0.40;0.30;;;;;;;-0.15;84.22;102065.44;5056877;28;20449;-79
2022/03/07 05:53:09;;;;;;;0.40;0.30;;;;;;;-0.13;83.69;102054.59;5055350;28;20473;-77
2022/03/07 05:55:35;;;;;;;0.40;0.30;;;;;;;-0.17;83.86;102050.69;5055204;28;20446;-76
2022/03/07 05:58:02;;;;;;;0.40;0.30;;;;;;;-0.21;84.07;102058.22;5057556;28;20450;-76
2022/03/07 06:00:30;;;;;;;0.40;0.30;;;;;;;-0.23;84.13;102059.41;5057369;28;20431;-76
2022/03/07 06:02:57;;;;;;;0.40;0.30;;;;;;;-0.20;84.49;102053.72;5057072;28;20457;-76
2022/03/07 06:05:24;;;;;;;0.40;0.30;;;;;;;-0.26;84.31;102048.16;5057511;28;20449;-76
2022/03/07 06:07:51;;;;;;;0.50;0.47;;;;;;;-0.25;84.35;102051.63;5056987;28;20791;-75
2022/03/07 06:10:17;;;;;;;0.40;0.30;;;;;;;-0.21;84.93;102058.22;5057012;28;20943;-76
2022/03/07 06:12:44;;;;;;;0.40;0.30;;;;;;;-0.28;86.12;102058.16;5057154;28;20470;-76
2022/03/07 06:15:11;;;;;;;0.40;0.30;;;;;;;-0.24;85.79;102057.78;5057535;28;20437;-76
2022/03/07 06:17:37;;;;;;;0.40;0.30;;;;;;;-0.15;85.80;102062.75;5057288;28;20445;-76
2022/03/07 06:20:05;;;;;;;4.17;3.90;;;;;;;-0.21;85.48;102058.22;5057156;28;20460;-76
2022/03/07 06:22:33;;;;;;;0.40;0.30;;;;;;;-0.24;85.56;102055.13;5057028;28;20486;-76
2022/03/07 06:24:59;;;;;;;0.40;0.30;;;;;;;-0.15;85.30;102046.78;5056992;28;20453;-76
2022/03/07 06:27:25;;;;;;;0.40;0.30;;;;;;;-0.18;85.57;102062.31;5056746;28;20943;-76
2022/03/07 06:29:52;;;;;;;0.40;0.40;;;;;;;-0.13;85.40;102057.25;5057033;28;20591;-76
2022/03/07 06:32:23;;;;;;;0.40;0.30;;;;;;;-0.11;86.31;102060.53;5056763;28;20481;-76
2022/03/07 06:34:50;;;;;;;0.40;0.30;;;;;;;-0.02;88.25;102072.69;5056961;28;20434;-76
2022/03/07 06:37:16;;;;;;;0.40;0.30;;;;;;;0.04;86.70;102071.91;5056683;28;20934;-76
2022/03/07 06:39:44;;;;;;;0.40;0.30;;;;;;;0.08;86.84;102078.50;5056791;28;20805;-76
2022/03/07 06:42:11;;;;;;;0.40;0.30;;;;;;;0.18;87.56;102076.31;5056115;28;20907;-76
2022/03/07 06:44:39;;;;;;;0.40;0.30;;;;;;;0.25;88.29;102074.50;5056693;28;20454;-77
2022/03/07 06:47:06;;;;;;;0.40;0.30;;;;;;;0.34;88.33;102080.50;5056637;28;20449;-77
2022/03/07 06:49:33;;;;;;;0.40;0.30;;;;;;;0.40;88.15;102077.06;5056228;28;20444;-77
2022/03/07 06:51:59;;;;;;;0.40;0.30;;;;;;;0.52;88.24;102080.00;5056452;28;20469;-77
2022/03/07 06:54:26;;;;;;;0.40;0.30;;;;;;;0.52;88.59;102082.66;5056478;28;20457;-77
2022/03/07 06:56:54;;;;;;;0.40;0.30;;;;;;;0.59;88.27;102074.72;5056536;28;20446;-77
2022/03/07 06:59:20;;;;;;;0.40;0.30;;;;;;;0.68;88.61;102071.66;5056632;28;20442;-77
2022/03/07 07:01:46;;;;;;;0.40;0.30;;;;;;;0.70;88.65;102074.94;5056124;28;20494;-77
2022/03/07 07:04:13;;;;;;;0.40;0.30;;;;;;;0.82;88.11;102077.88;5056139;28;20458;-77
2022/03/07 07:06:39;;;;;;;0.40;0.30;;;;;;;0.88;87.96;102074.41;5054851;28;20450;-77
2022/03/07 07:09:06;;;;;;;0.40;0.30;;;;;;;0.92;88.10;102072.16;5056119;28;20944;-77
2022/03/07 07:11:32;;;;;;;0.40;0.30;;;;;;;0.99;88.50;102079.19;5055893;28;20468;-77
2022/03/07 07:14:00;;;;;;;0.40;0.30;;;;;;;1.10;87.73;102075.09;5056042;28;20450;-77
2022/03/07 07:16:27;;;;;;;0.40;0.30;;;;;;;1.16;87.75;102074.31;5056166;28;20446;-77
2022/03/07 07:18:53;;;;;;;0.40;0.30;;;;;;;1.25;87.49;102073.09;5055971;28;20978;-77
2022/03/07 07:21:20;;;;;;;0.40;0.30;;;;;;;1.27;87.21;102078.22;5055880;28;20848;-78
2022/03/07 07:23:46;;;;;;;0.40;0.30;;;;;;;1.20;87.86;102072.06;5056189;28;20458;-77
2022/03/07 07:26:13;;;;;;;0.40;0.30;;;;;;;1.30;87.57;102071.66;5055878;28;20453;-77
2022/03/07 07:28:40;;;;;;;0.40;0.30;;;;;;;1.35;87.58;102072.69;5055626;28;20442;-77
2022/03/07 07:31:08;;;;;;;0.40;0.30;;;;;;;1.37;87.82;102083.16;5055744;28;20482;-77
2022/03/07 07:33:35;;;;;;;0.40;0.30;;;;;;;1.44;88.14;102084.00;5055958;28;20466;-77
2022/03/07 07:36:01;;;;;;;0.40;0.30;;;;;;;1.48;87.87;102079.91;5056085;28;20438;-77
2022/03/07 07:38:28;;;;;;;0.40;0.30;;;;;;;1.46;88.00;102092.63;5055900;28;20437;-77
2022/03/07 07:40:55;;;;;;;0.40;0.30;;;;;;;1.46;88.14;102090.81;5055832;28;20446;-77
2022/03/07 07:43:22;;;;;;;0.40;0.30;;;;;;;1.48;88.73;102095.94;5056262;28;20470;-77
2022/03/07 07:45:49;;;;;;;0.40;0.30;;;;;;;1.52;89.02;102094.50;5055938;28;20447;-77
2022/03/07 07:48:16;;;;;;;0.40;0.30;;;;;;;1.60;89.19;102096.16;5058412;28;20451;-77
2022/03/07 07:50:43;;;;;;;0.40;0.30;;;;;;;1.69;89.09;102094.94;5057951;28;20811;-77
2022/03/07 07:53:09;;;;;;;0.40;0.30;;;;;;;1.79;88.80;102095.34;5055420;28;20458;-77
2022/03/07 07:55:36;;;;;;;0.40;0.30;;;;;;;1.86;88.53;102093.50;5055816;28;20468;-77
2022/03/07 07:58:03;;;;;;;0.40;0.30;;;;;;;1.99;88.05;102095.31;5058787;28;20534;-78
2022/03/07 08:00:29;;;;;;;0.40;0.40;;;;;;;2.02;87.90;102089.56;5058098;28;20433;-78
2022/03/07 08:02:56;;;;;;;0.40;0.30;;;;;;;2.10;88.27;102093.88;5056233;28;20490;-77
2022/03/07 08:05:24;;;;;;;0.40;0.30;;;;;;;2.14;88.06;102101.28;5059050;28;20783;-77
2022/03/07 08:07:51;;;;;;;0.40;0.30;;;;;;;2.26;88.14;102098.81;5056230;28;20450;-77
2022/03/07 08:10:18;;;;;;;0.40;0.30;;;;;;;2.33;87.73;102085.41;5057592;28;20446;-76
2022/03/07 08:12:45;;;;;;;0.40;0.30;;;;;;;2.43;88.06;102101.84;5055334;28;20524;-77
2022/03/07 08:15:13;;;;;;;0.40;0.30;;;;;;;2.38;87.56;102089.09;5054669;28;20873;-77
2022/03/07 08:17:40;;;;;;;0.40;0.30;;;;;;;2.46;87.80;102099.56;5055292;28;20810;-78
2022/03/07 08:20:08;;;;;;;0.40;0.30;;;;;;;2.55;87.98;102102.84;5057153;28;20496;-77
2022/03/07 08:22:36;;;;;;;0.40;0.30;;;;;;;2.66;87.36;102104.06;5056865;28;20493;-78
2022/03/07 08:25:02;;;;;;;0.40;0.30;;;;;;;2.76;86.73;102102.59;5057243;28;20525;-78
2022/03/07 08:27:29;;;;;;;0.40;0.30;;;;;;;2.86;86.86;102095.97;5056169;28;20443;-78
2022/03/07 08:29:55;;;;;;;0.63;0.63;;;;;;;2.95;86.46;102098.19;5058256;28;20447;-78
2022/03/07 08:32:21;;;;;;;0.40;0.30;;;;;;;3.06;85.77;102093.22;5056102;28;20869;-78
2022/03/07 08:34:48;;;;;;;0.40;0.30;;;;;;;3.09;85.36;102098.13;5058409;28;20450;-77
2022/03/07 08:37:15;;;;;;;0.40;0.30;;;;;;;3.07;85.55;102095.66;5056491;28;20447;-78
2022/03/07 08:39:42;;;;;;;0.40;0.30;;;;;;;3.23;85.29;102099.69;5059734;28;20442;-78
2022/03/07 08:42:09;;;;;;;0.40;0.30;;;;;;;3.33;84.86;102094.69;5055585;28;21019;-78
2022/03/07 08:44:36;;;;;;;0.40;0.30;;;;;;;3.43;83.99;102089.69;5058311;28;20441;-77
2022/03/07 08:47:02;;;;;;;0.50;0.40;;;;;;;3.51;83.32;102089.44;5060552;28;20441;-77
2022/03/07 08:49:29;;;;;;;0.70;0.70;;;;;;;3.57;82.56;102095.78;5064145;28;20453;-78
2022/03/07 08:51:55;;;;;;;0.40;0.20;;;;;;;3.62;82.31;102092.44;5063195;28;20474;-78
2022/03/07 08:54:22;;;;;;;0.40;0.30;;;;;;;3.67;82.31;102080.03;5062019;28;20445;-78
2022/03/07 08:56:50;;;;;;;0.40;0.30;;;;;;;3.69;82.34;102085.19;5057859;28;20843;-79
2022/03/07 08:59:16;;;;;;;0.40;0.30;;;;;;;3.77;82.23;102090.28;5057377;28;20538;-78
2022/03/07 09:01:43;;;;;;;0.40;0.30;;;;;;;3.86;81.53;102088.16;5057298;28;20497;-78
2022/03/07 09:04:09;;;;;;;0.50;0.30;;;;;;;3.92;80.94;102080.03;5055570;28;20450;-78
2022/03/07 09:06:36;;;;;;;0.40;0.30;;;;;;;3.98;80.42;102086.38;5055854;28;20446;-78
2022/03/07 09:09:03;;;;;;;0.40;0.30;;;;;;;4.12;80.10;102084.38;5058285;28;20430;-79
2022/03/07 09:11:29;;;;;;;0.40;0.30;;;;;;;4.11;79.74;102080.88;5055409;28;20549;-78
2022/03/07 09:13:57;;;;;;;0.40;0.30;;;;;;;4.24;79.05;102078.06;5055496;28;20449;-78
2022/03/07 09:16:23;;;;;;;0.40;0.30;;;;;;;4.35;78.56;102081.91;5054359;28;20884;-78
2022/03/07 09:18:50;;;;;;;0.40;0.30;;;;;;;4.36;77.58;102078.19;5055326;28;20427;-78
2022/03/07 09:21:16;;;;;;;0.40;0.30;;;;;;;4.42;78.10;102092.56;5058922;28;20439;-79
2022/03/07 09:23:46;;;;;;;0.40;0.30;;;;;;;4.46;77.62;102089.19;5056614;28;20462;-78
2022/03/07 09:26:13;;;;;;;0.40;0.30;;;;;;;4.48;77.91;102091.69;5055709;28;20450;-78
2022/03/07 09:28:40;;;;;;;0.40;0.30;;;;;;;4.57;77.65;102084.16;5056094;28;20462;-78
2022/03/07 09:31:07;;;;;;;0.40;0.30;;;;;;;4.69;74.97;102099.28;5058276;28;20450;-78
2022/03/07 09:33:34;;;;;;;0.40;0.30;;;;;;;4.72;72.66;102104.19;5056331;28;20458;-78
2022/03/07 09:36:00;;;;;;;0.40;0.30;;;;;;;4.71;73.34;102094.50;5057813;28;20449;-78
2022/03/07 09:38:28;;;;;;;0.40;0.30;;;;;;;4.67;70.70;102098.69;5056962;28;20457;-78
2022/03/07 09:40:55;;;;;;;0.40;0.30;;;;;;;4.79;70.27;102098.75;5055160;28;20970;-79
2022/03/07 09:43:22;;;;;;;0.40;0.30;;;;;;;4.88;68.87;102107.31;5058465;28;20494;-78
2022/03/07 09:45:49;;;;;;;0.40;0.30;;;;;;;4.87;68.77;102113.72;5056887;28;20434;-79
2022/03/07 09:48:17;;;;;;;0.40;0.30;;;;;;;5.00;69.50;102100.13;5060378;28;20438;-79
2022/03/07 09:50:44;;;;;;;0.40;0.30;;;;;;;5.04;69.02;102106.69;5056907;28;20442;-78
2022/03/07 09:53:13;;;;;;;0.40;0.30;;;;;;;5.09;69.47;102104.16;5056333;28;20999;-78
2022/03/07 09:55:40;;;;;;;0.40;0.30;;;;;;;5.12;69.00;102100.19;5057946;28;20454;-79
2022/03/07 09:58:08;;;;;;;0.40;0.30;;;;;;;5.17;69.57;102114.56;5056998;28;20974;-79
2022/03/07 10:00:35;;;;;;;0.40;0.30;;;;;;;5.24;68.48;102115.31;5057746;28;20446;-79
2022/03/07 10:03:05;;;;;;;0.40;0.30;;;;;;;5.24;68.43;102107.25;5056484;28;20508;-79
2022/03/07 10:05:36;;;;;;;0.40;0.30;;;;;;;5.19;69.62;102112.50;5058008;28;20457;-78
2022/03/07 10:08:03;;;;;;;0.40;0.30;;;;;;;5.08;69.56;102107.88;5056592;28;20802;-78
2022/03/07 10:10:30;;;;;;;0.40;0.30;;;;;;;5.14;70.42;102115.03;5058567;28;20455;-79
2022/03/07 10:12:57;;;;;;;0.40;0.30;;;;;;;5.23;69.90;102113.69;5059854;28;20454;-79
2022/03/07 10:15:23;;;;;;;0.40;0.30;;;;;;;5.31;69.35;102112.53;5063955;28;20446;-79
2022/03/07 10:17:52;;;;;;;0.40;0.30;;;;;;;5.37;69.79;102111.63;5061750;28;20450;-79
2022/03/07 10:20:20;;;;;;;0.40;0.30;;;;;;;5.38;69.44;102120.50;5059020;28;20932;-78
2022/03/07 10:22:50;;;;;;;0.40;0.30;;;;;;;5.39;69.16;102114.06;5058631;28;20486;-79
2022/03/07 10:25:21;;;;;;;0.40;0.30;;;;;;;5.37;69.94;102111.63;5059896;28;20489;-79
2022/03/07 10:27:49;;;;;;;0.40;0.30;;;;;;;5.48;70.88;102118.06;5059073;28;20442;-79
2022/03/07 10:30:17;;;;;;;0.40;0.30;;;;;;;5.63;69.95;102126.56;5060633;28;20842;-78
2022/03/07 10:32:51;;;;;;;0.40;0.30;;;;;;;5.61;68.79;102128.63;5056369;28;20462;-79
2022/03/07 10:35:22;;;;;;;0.40;0.30;;;;;;;5.54;68.23;102109.13;5058338;28;20766;-78
2022/03/07 10:37:50;;;;;;;0.40;0.30;;;;;;;5.65;68.53;102124.44;5061076;28;20446;-79
2022/03/07 10:40:22;;;;;;;0.40;0.30;;;;;;;5.57;67.07;102114.81;5058659;28;20453;-78
2022/03/07 10:42:52;;;;;;;0.40;0.30;;;;;;;5.41;68.08;102112.00;5059866;28;20482;-77
2022/03/07 10:45:18;;;;;;;0.40;0.30;;;;;;;5.48;67.67;102110.00;5059215;28;20462;-78
2022/03/07 10:47:51;;;;;;;0.40;0.30;;;;;;;5.69;68.12;102114.88;5062323;28;20446;-79
2022/03/07 10:50:21;;;;;;;0.40;0.30;;;;;;;5.74;66.80;102108.81;5062286;28;20430;-79
2022/03/07 10:52:47;;;;;;;0.40;0.30;;;;;;;5.76;67.50;102107.53;5060555;28;20458;-79
2022/03/07 10:55:23;;;;;;;0.40;0.30;;;;;;;5.75;65.84;102119.31;5060744;28;20442;-78
2022/03/07 10:57:50;;;;;;;0.40;0.30;;;;;;;5.82;67.04;102111.16;5059018;28;20430;-78
2022/03/07 11:00:18;;;;;;;0.40;0.30;;;;;;;5.83;66.54;102096.66;5059724;28;20446;-79
2022/03/07 11:02:47;;;;;;;0.40;0.30;;;;;;;5.93;65.01;102105.03;5058570;28;20486;-78
2022/03/07 11:05:16;;;;;;;0.40;0.30;;;;;;;6.02;64.22;102108.16;5060015;28;20521;-78
2022/03/07 11:07:45;;;;;;;0.40;0.30;;;;;;;6.26;64.33;102107.13;5062180;28;20449;-79
2022/03/07 11:10:13;;;;;;;0.40;0.30;;;;;;;6.57;64.45;102097.03;5061816;28;20819;-79
2022/03/07 11:12:41;;;;;;;0.47;0.40;;;;;;;6.79;62.19;102100.75;5061556;28;20458;-79
2022/03/07 11:15:09;;;;;;;0.40;0.30;;;;;;;6.85;61.66;102103.53;5060981;28;20449;-78
2022/03/07 11:17:40;;;;;;;0.40;0.30;;;;;;;7.02;61.42;102107.94;5059933;28;20431;-78
2022/03/07 11:20:08;;;;;;;0.40;0.30;;;;;;;7.29;60.62;102101.97;5059951;28;20952;-79
2022/03/07 11:22:35;;;;;;;0.40;0.30;;;;;;;7.43;58.65;102099.78;5059875;28;20474;-78
2022/03/07 11:25:04;;;;;;;0.40;0.30;;;;;;;7.37;58.96;102104.28;5059807;28;20450;-79
2022/03/07 11:27:34;;;;;;;0.40;0.30;;;;;;;7.61;58.16;102109.53;5061167;28;20422;-79
2022/03/07 11:30:13;;;;;;;0.40;0.30;;;;;;;7.93;57.46;102099.84;5060257;28;20863;-79